sensor_id;sensor_type;location;lat;lon;timestamp;pressure;altitude;pressure_sealevel;temperature;humidity
68594;BME280;55563;52.416;13.548;2023-12-07T00:01:30;101315.91;;;1.30;100.00
68594;BME280;55563;52.416;13.548;2023-12-07T00:03:31;101311.09;;;1.27;100.00
68594;BME280;55563;52.416;13.548;2023-12-07T00:05:31;101317.97;;;1.20;100.00
68594;BME280;55563;52.416;13.548;2023-12-07T00:07:32;101320.66;;;1.27;100.00
68594;BME280;55563;52.416;13.548;2023-12-07T00:09:33;101316.66;;;1.24;100.00
68594;BME280;55563;52.416;13.548;2023-12-07T00:11:34;101318.06;;;1.27;100.00
68594;BME280;55563;52.416;13.548;2023-12-07T00:13:34;101320.91;;;1.32;100.00
68594;BME280;55563;52.416;13.548;2023-12-07T00:15:35;101329.41;;;1.26;100.00
68594;BME280;55563;52.416;13.548;2023-12-07T00:17:36;101329.50;;;1.18;100.00
68594;BME280;55563;52.416;13.548;2023-12-07T00:19:36;101326.91;;;1.18;100.00
68594;BME280;55563;52.416;13.548;2023-12-07T00:21:37;101330.31;;;1.18;100.00
68594;BME280;55563;52.416;13.548;2023-12-07T00:23:37;101326.75;;;1.19;100.00
68594;BME280;55563;52.416;13.548;2023-12-07T00:25:38;101324.97;;;1.20;100.00
68594;BME280;55563;52.416;13.548;2023-12-07T00:27:39;101322.38;;;1.20;100.00
68594;BME280;55563;52.416;13.548;2023-12-07T00:29:39;101322.56;;;1.18;100.00
68594;BME280;55563;52.416;13.548;2023-12-07T00:31:40;101328.44;;;1.12;100.00
68594;BME280;55563;52.416;13.548;2023-12-07T00:33:41;101328.69;;;1.17;100.00
68594;BME280;55563;52.416;13.548;2023-12-07T00:35:42;101323.91;;;1.14;100.00
68594;BME280;55563;52.416;13.548;2023-12-07T00:37:43;101331.84;;;1.13;100.00
68594;BME280;55563;52.416;13.548;2023-12-07T00:39:44;101340.41;;;1.13;100.00
68594;BME280;55563;52.416;13.548;2023-12-07T00:41:44;101331.19;;;1.11;100.00
68594;BME280;55563;52.416;13.548;2023-12-07T00:43:47;101332.09;;;1.18;100.00
68594;BME280;55563;52.416;13.548;2023-12-07T00:45:48;101335.13;;;1.21;100.00
68594;BME280;55563;52.416;13.548;2023-12-07T00:47:48;101333.34;;;1.22;100.00
68594;BME280;55563;52.416;13.548;2023-12-07T00:49:49;101343.09;;;1.20;100.00
68594;BME280;55563;52.416;13.548;2023-12-07T00:51:49;101343.88;;;1.20;100.00
68594;BME280;55563;52.416;13.548;2023-12-07T00:53:50;101343.44;;;1.17;100.00
68594;BME280;55563;52.416;13.548;2023-12-07T00:55:51;101337.00;;;1.13;100.00
68594;BME280;55563;52.416;13.548;2023-12-07T00:57:51;101340.22;;;1.15;100.00
68594;BME280;55563;52.416;13.548;2023-12-07T00:59:52;101343.25;;;1.18;100.00
68594;BME280;55563;52.416;13.548;2023-12-07T01:01:52;101340.84;;;1.17;100.00
68594;BME280;55563;52.416;13.548;2023-12-07T01:03:53;101336.09;;;1.20;100.00
68594;BME280;55563;52.416;13.548;2023-12-07T01:05:53;101340.41;;;1.13;100.00
68594;BME280;55563;52.416;13.548;2023-12-07T01:07:55;101344.41;;;1.16;100.00
68594;BME280;55563;52.416;13.548;2023-12-07T01:09:55;101347.63;;;1.18;100.00
68594;BME280;55563;52.416;13.548;2023-12-07T01:11:56;101352.81;;;1.18;100.00
68594;BME280;55563;52.416;13.548;2023-12-07T01:13:58;101351.19;;;1.17;100.00
68594;BME280;55563;52.416;13.548;2023-12-07T01:15:58;101350.22;;;1.18;100.00
68594;BME280;55563;52.416;13.548;2023-12-07T01:17:59;101359.78;;;1.17;100.00
68594;BME280;55563;52.416;13.548;2023-12-07T01:20:00;101369.50;;;1.15;100.00
68594;BME280;55563;52.416;13.548;2023-12-07T01:22:01;101378.06;;;1.16;100.00
68594;BME280;55563;52.416;13.548;2023-12-07T01:24:01;101380.66;;;1.16;100.00
68594;BME280;55563;52.416;13.548;2023-12-07T01:26:02;101376.75;;;1.20;100.00
68594;BME280;55563;52.416;13.548;2023-12-07T01:28:03;101379.34;;;1.20;100.00
68594;BME280;55563;52.416;13.548;2023-12-07T01:30:04;101385.50;;;1.19;100.00
68594;BME280;55563;52.416;13.548;2023-12-07T01:32:05;101385.28;;;1.20;100.00
68594;BME280;55563;52.416;13.548;2023-12-07T01:34:06;101387.72;;;1.22;100.00
68594;BME280;55563;52.416;13.548;2023-12-07T01:36:07;101389.88;;;1.18;100.00
68594;BME280;55563;52.416;13.548;2023-12-07T01:38:08;101397.63;;;1.18;100.00
68594;BME280;55563;52.416;13.548;2023-12-07T01:40:08;101393.59;;;1.16;100.00
68594;BME280;55563;52.416;13.548;2023-12-07T01:42:11;101391.53;;;1.11;100.00
68594;BME280;55563;52.416;13.548;2023-12-07T01:44:12;101396.28;;;1.08;100.00
68594;BME280;55563;52.416;13.548;2023-12-07T01:46:14;101392.72;;;1.09;100.00
68594;BME280;55563;52.416;13.548;2023-12-07T01:48:15;101396.09;;;1.09;100.00
68594;BME280;55563;52.416;13.548;2023-12-07T01:50:15;101398.50;;;1.11;100.00
68594;BME280;55563;52.416;13.548;2023-12-07T01:52:17;101399.13;;;1.13;100.00
68594;BME280;55563;52.416;13.548;2023-12-07T01:54:17;101396.81;;;1.18;100.00
68594;BME280;55563;52.416;13.548;2023-12-07T01:56:19;101403.63;;;1.19;100.00
68594;BME280;55563;52.416;13.548;2023-12-07T01:58:20;101409.22;;;1.22;100.00
68594;BME280;55563;52.416;13.548;2023-12-07T02:00:21;101405.66;;;1.23;100.00
68594;BME280;55563;52.416;13.548;2023-12-07T02:02:21;101405.66;;;1.23;100.00
68594;BME280;55563;52.416;13.548;2023-12-07T02:04:22;101409.75;;;1.18;100.00
68594;BME280;55563;52.416;13.548;2023-12-07T02:06:23;101409.59;;;1.19;100.00
68594;BME280;55563;52.416;13.548;2023-12-07T02:08:23;101413.16;;;1.18;100.00
68594;BME280;55563;52.416;13.548;2023-12-07T02:10:24;101408.78;;;1.19;100.00
68594;BME280;55563;52.416;13.548;2023-12-07T02:12:26;101408.78;;;1.19;100.00
68594;BME280;55563;52.416;13.548;2023-12-07T02:14:30;101407.19;;;1.18;100.00
68594;BME280;55563;52.416;13.548;2023-12-07T02:16:39;101418.78;;;1.22;100.00
68594;BME280;55563;52.416;13.548;2023-12-07T02:18:52;101412.78;;;1.21;100.00
68594;BME280;55563;52.416;13.548;2023-12-07T02:21:21;101420.56;;;1.21;100.00
68594;BME280;55563;52.416;13.548;2023-12-07T02:23:23;101403.06;;;1.23;100.00
68594;BME280;55563;52.416;13.548;2023-12-07T02:25:31;101410.19;;;1.21;100.00
68594;BME280;55563;52.416;13.548;2023-12-07T02:27:35;101408.59;;;1.20;100.00
68594;BME280;55563;52.416;13.548;2023-12-07T02:29:35;101402.81;;;1.18;100.00
68594;BME280;55563;52.416;13.548;2023-12-07T02:31:36;101406.38;;;1.17;100.00
68594;BME280;55563;52.416;13.548;2023-12-07T02:33:36;101406.00;;;1.20;100.00
68594;BME280;55563;52.416;13.548;2023-12-07T02:35:38;101401.84;;;1.19;100.00
68594;BME280;55563;52.416;13.548;2023-12-07T02:37:43;101404.75;;;1.16;100.00
68594;BME280;55563;52.416;13.548;2023-12-07T02:39:45;101404.59;;;1.18;100.00
68594;BME280;55563;52.416;13.548;2023-12-07T02:41:46;101411.38;;;1.19;100.00
68594;BME280;55563;52.416;13.548;2023-12-07T02:43:49;101409.41;;;1.21;100.00
68594;BME280;55563;52.416;13.548;2023-12-07T02:45:49;101417.97;;;1.21;100.00
68594;BME280;55563;52.416;13.548;2023-12-07T02:47:50;101415.22;;;1.23;100.00
68594;BME280;55563;52.416;13.548;2023-12-07T02:49:51;101419.75;;;1.21;100.00
68594;BME280;55563;52.416;13.548;2023-12-07T02:51:51;101422.00;;;1.24;100.00
68594;BME280;55563;52.416;13.548;2023-12-07T02:53:52;101421.53;;;1.20;100.00
68594;BME280;55563;52.416;13.548;2023-12-07T02:55:52;101424.94;;;1.21;100.00
68594;BME280;55563;52.416;13.548;2023-12-07T02:57:53;101428.16;;;1.23;100.00
68594;BME280;55563;52.416;13.548;2023-12-07T02:59:53;101435.13;;;1.22;100.00
68594;BME280;55563;52.416;13.548;2023-12-07T03:01:54;101435.75;;;1.24;100.00
68594;BME280;55563;52.416;13.548;2023-12-07T03:03:55;101428.69;;;1.18;100.00
68594;BME280;55563;52.416;13.548;2023-12-07T03:06:15;101437.44;;;1.17;100.00
68594;BME280;55563;52.416;13.548;2023-12-07T03:08:20;101444.22;;;1.18;100.00
68594;BME280;55563;52.416;13.548;2023-12-07T03:10:21;101433.69;;;1.20;100.00
68594;BME280;55563;52.416;13.548;2023-12-07T03:12:21;101437.06;;;1.20;100.00
68594;BME280;55563;52.416;13.548;2023-12-07T03:14:23;101441.72;;;1.25;100.00
68594;BME280;55563;52.416;13.548;2023-12-07T03:16:24;101442.53;;;1.25;100.00
68594;BME280;55563;52.416;13.548;2023-12-07T03:18:24;101440.94;;;1.24;100.00
68594;BME280;55563;52.416;13.548;2023-12-07T03:20:25;101446.13;;;1.24;100.00
68594;BME280;55563;52.416;13.548;2023-12-07T03:22:26;101446.28;;;1.23;100.00
68594;BME280;55563;52.416;13.548;2023-12-07T03:24:27;101440.66;;;1.19;100.00
68594;BME280;55563;52.416;13.548;2023-12-07T03:26:28;101440.47;;;1.21;100.00
68594;BME280;55563;52.416;13.548;2023-12-07T03:28:28;101438.53;;;1.23;100.00
68594;BME280;55563;52.416;13.548;2023-12-07T03:30:29;101448.06;;;1.22;100.00
68594;BME280;55563;52.416;13.548;2023-12-07T03:32:30;101443.06;;;1.21;100.00
68594;BME280;55563;52.416;13.548;2023-12-07T03:34:30;101445.56;;;1.14;100.00
68594;BME280;55563;52.416;13.548;2023-12-07T03:36:31;101452.97;;;1.17;100.00
68594;BME280;55563;52.416;13.548;2023-12-07T03:38:31;101446.53;;;1.13;100.00
68594;BME280;55563;52.416;13.548;2023-12-07T03:40:32;101453.66;;;1.11;100.00
68594;BME280;55563;52.416;13.548;2023-12-07T03:42:33;101451.88;;;1.12;100.00
68594;BME280;55563;52.416;13.548;2023-12-07T03:44:34;101458.03;;;1.11;100.00
68594;BME280;55563;52.416;13.548;2023-12-07T03:46:35;101454.03;;;1.08;100.00
68594;BME280;55563;52.416;13.548;2023-12-07T03:48:35;101463.75;;;1.06;100.00
68594;BME280;55563;52.416;13.548;2023-12-07T03:50:36;101467.25;;;1.13;100.00
68594;BME280;55563;52.416;13.548;2023-12-07T03:52:37;101464.31;;;1.16;100.00
68594;BME280;55563;52.416;13.548;2023-12-07T03:54:37;101471.91;;;1.18;100.00
68594;BME280;55563;52.416;13.548;2023-12-07T03:56:38;101480.47;;;1.18;100.00
68594;BME280;55563;52.416;13.548;2023-12-07T03:58:41;101474.13;;;1.21;100.00
68594;BME280;55563;52.416;13.548;2023-12-07T04:00:42;101476.72;;;1.21;100.00
68594;BME280;55563;52.416;13.548;2023-12-07T04:02:42;101469.94;;;1.20;100.00
68594;BME280;55563;52.416;13.548;2023-12-07T04:04:43;101472.34;;;1.21;100.00
68594;BME280;55563;52.416;13.548;2023-12-07T04:06:44;101473.16;;;1.22;100.00
68594;BME280;55563;52.416;13.548;2023-12-07T04:08:44;101469.94;;;1.20;100.00
68594;BME280;55563;52.416;13.548;2023-12-07T04:10:47;101471.53;;;1.21;100.00
68594;BME280;55563;52.416;13.548;2023-12-07T04:12:47;101465.38;;;1.22;100.00
68594;BME280;55563;52.416;13.548;2023-12-07T04:14:49;101474.13;;;1.21;100.00
68594;BME280;55563;52.416;13.548;2023-12-07T04:16:50;101469.16;;;1.19;100.00
68594;BME280;55563;52.416;13.548;2023-12-07T04:18:51;101469.75;;;1.21;100.00
68594;BME280;55563;52.416;13.548;2023-12-07T04:20:51;101467.16;;;1.21;100.00
68594;BME280;55563;52.416;13.548;2023-12-07T04:22:52;101475.75;;;1.22;100.00
68594;BME280;55563;52.416;13.548;2023-12-07T04:24:53;101467.81;;;1.23;100.00
68594;BME280;55563;52.416;13.548;2023-12-07T04:26:54;101466.84;;;1.24;100.00
68594;BME280;55563;52.416;13.548;2023-12-07T04:28:55;101468.63;;;1.24;100.00
68594;BME280;55563;52.416;13.548;2023-12-07T04:30:56;101474.75;;;1.23;100.00
68594;BME280;55563;52.416;13.548;2023-12-07T04:32:57;101466.34;;;1.21;100.00
68594;BME280;55563;52.416;13.548;2023-12-07T04:34:57;101479.50;;;1.19;100.00
68594;BME280;55563;52.416;13.548;2023-12-07T04:36:58;101484.69;;;1.19;100.00
68594;BME280;55563;52.416;13.548;2023-12-07T04:38:58;101479.31;;;1.21;100.00
68594;BME280;55563;52.416;13.548;2023-12-07T04:40:59;101487.72;;;1.23;100.00
68594;BME280;55563;52.416;13.548;2023-12-07T04:43:00;101491.09;;;1.23;100.00
68594;BME280;55563;52.416;13.548;2023-12-07T04:45:01;101495.66;;;1.21;100.00
68594;BME280;55563;52.416;13.548;2023-12-07T04:47:02;101490.13;;;1.24;100.00
68594;BME280;55563;52.416;13.548;2023-12-07T04:49:03;101497.69;;;1.26;100.00
68594;BME280;55563;52.416;13.548;2023-12-07T04:51:03;101501.91;;;1.27;100.00
68594;BME280;55563;52.416;13.548;2023-12-07T04:53:05;101503.53;;;1.28;100.00
68594;BME280;55563;52.416;13.548;2023-12-07T04:55:06;101506.91;;;1.28;100.00
68594;BME280;55563;52.416;13.548;2023-12-07T04:57:07;101513.06;;;1.27;100.00
68594;BME280;55563;52.416;13.548;2023-12-07T04:59:09;101513.25;;;1.26;100.00
68594;BME280;55563;52.416;13.548;2023-12-07T05:01:10;101509.69;;;1.27;100.00
68594;BME280;55563;52.416;13.548;2023-12-07T05:03:10;101505.13;;;1.29;100.00
68594;BME280;55563;52.416;13.548;2023-12-07T05:05:11;101507.09;;;1.27;100.00
68594;BME280;55563;52.416;13.548;2023-12-07T05:07:13;101511.13;;;1.29;100.00
68594;BME280;55563;52.416;13.548;2023-12-07T05:09:14;101515.31;;;1.30;100.00
68594;BME280;55563;52.416;13.548;2023-12-07T05:11:15;101516.09;;;1.31;100.00
68594;BME280;55563;52.416;13.548;2023-12-07T05:13:16;101514.31;;;1.31;100.00
68594;BME280;55563;52.416;13.548;2023-12-07T05:15:17;101520.47;;;1.30;100.00
68594;BME280;55563;52.416;13.548;2023-12-07T05:17:18;101514.69;;;1.28;100.00
68594;BME280;55563;52.416;13.548;2023-12-07T05:19:19;101518.91;;;1.29;100.00
68594;BME280;55563;52.416;13.548;2023-12-07T05:21:21;101518.09;;;1.29;100.00
68594;BME280;55563;52.416;13.548;2023-12-07T05:23:21;101519.88;;;1.28;100.00
68594;BME280;55563;52.416;13.548;2023-12-07T05:25:22;101514.69;;;1.28;100.00
68594;BME280;55563;52.416;13.548;2023-12-07T05:27:23;101513.53;;;1.31;100.00
68594;BME280;55563;52.416;13.548;2023-12-07T05:29:24;101512.25;;;1.27;100.00
68594;BME280;55563;52.416;13.548;2023-12-07T05:31:24;101510.31;;;1.29;100.00
68594;BME280;55563;52.416;13.548;2023-12-07T05:33:26;101523.28;;;1.29;100.00
68594;BME280;55563;52.416;13.548;2023-12-07T05:35:27;101516.63;;;1.26;100.00
68594;BME280;55563;52.416;13.548;2023-12-07T05:37:27;101518.91;;;1.29;100.00
68594;BME280;55563;52.416;13.548;2023-12-07T05:39:28;101524.06;;;1.29;100.00
68594;BME280;55563;52.416;13.548;2023-12-07T05:41:29;101524.06;;;1.29;100.00
68594;BME280;55563;52.416;13.548;2023-12-07T05:43:30;101529.06;;;1.31;100.00
68594;BME280;55563;52.416;13.548;2023-12-07T05:45:31;101521.28;;;1.31;100.00
68594;BME280;55563;52.416;13.548;2023-12-07T05:47:32;101519.22;;;1.26;100.00
68594;BME280;55563;52.416;13.548;2023-12-07T05:49:32;101518.41;;;1.26;100.00
68594;BME280;55563;52.416;13.548;2023-12-07T05:51:36;101520.19;;;1.25;100.00
68594;BME280;55563;52.416;13.548;2023-12-07T05:53:38;101519.22;;;1.26;100.00
68594;BME280;55563;52.416;13.548;2023-12-07T05:55:39;101520.19;;;1.25;100.00
68594;BME280;55563;52.416;13.548;2023-12-07T05:57:40;101519.22;;;1.26;100.00
68594;BME280;55563;52.416;13.548;2023-12-07T05:59:41;101515.22;;;1.24;100.00
68594;BME280;55563;52.416;13.548;2023-12-07T06:01:43;101516.03;;;1.24;100.00
68594;BME280;55563;52.416;13.548;2023-12-07T06:03:44;101521.47;;;1.29;100.00
68594;BME280;55563;52.416;13.548;2023-12-07T06:05:44;101524.69;;;1.31;100.00
68594;BME280;55563;52.416;13.548;2023-12-07T06:07:47;101528.88;;;1.33;100.00
68594;BME280;55563;52.416;13.548;2023-12-07T06:09:47;101524.53;;;1.33;100.00
68594;BME280;55563;52.416;13.548;2023-12-07T06:11:48;101525.50;;;1.32;100.00
68594;BME280;55563;52.416;13.548;2023-12-07T06:13:49;101532.47;;;1.31;100.00
68594;BME280;55563;52.416;13.548;2023-12-07T06:15:49;101540.38;;;1.30;100.00
68594;BME280;55563;52.416;13.548;2023-12-07T06:17:50;101540.22;;;1.31;100.00
68594;BME280;55563;52.416;13.548;2023-12-07T06:19:51;101534.44;;;1.29;100.00
68594;BME280;55563;52.416;13.548;2023-12-07T06:21:51;101538.44;;;1.32;100.00
68594;BME280;55563;52.416;13.548;2023-12-07T06:23:52;101544.44;;;1.33;100.00
68594;BME280;55563;52.416;13.548;2023-12-07T06:25:53;101541.84;;;1.33;100.00
68594;BME280;55563;52.416;13.548;2023-12-07T06:27:54;101544.44;;;1.33;100.00
68594;BME280;55563;52.416;13.548;2023-12-07T06:29:56;101549.16;;;1.29;100.00
68594;BME280;55563;52.416;13.548;2023-12-07T06:31:57;101550.41;;;1.33;100.00
68594;BME280;55563;52.416;13.548;2023-12-07T06:33:58;101556.66;;;1.24;100.00
68594;BME280;55563;52.416;13.548;2023-12-07T06:36:01;101553.06;;;1.25;100.00
68594;BME280;55563;52.416;13.548;2023-12-07T06:38:03;101549.69;;;1.24;100.00
68594;BME280;55563;52.416;13.548;2023-12-07T06:40:04;101558.72;;;1.28;100.00
68594;BME280;55563;52.416;13.548;2023-12-07T06:42:05;101566.28;;;1.30;100.00
68594;BME280;55563;52.416;13.548;2023-12-07T06:44:06;101559.56;;;1.21;100.00
68594;BME280;55563;52.416;13.548;2023-12-07T06:46:07;101572.63;;;1.27;100.00
68594;BME280;55563;52.416;13.548;2023-12-07T06:48:08;101565.84;;;1.26;100.00
68594;BME280;55563;52.416;13.548;2023-12-07T06:50:09;101575.50;;;1.33;100.00
68594;BME280;55563;52.416;13.548;2023-12-07T06:52:10;101572.47;;;1.29;100.00
68594;BME280;55563;52.416;13.548;2023-12-07T06:54:12;101579.88;;;1.32;100.00
68594;BME280;55563;52.416;13.548;2023-12-07T06:56:14;101583.16;;;1.26;100.00
68594;BME280;55563;52.416;13.548;2023-12-07T06:58:15;101581.03;;;1.29;100.00
68594;BME280;55563;52.416;13.548;2023-12-07T07:00:16;101591.41;;;1.29;100.00
68594;BME280;55563;52.416;13.548;2023-12-07T07:02:18;101583.97;;;1.26;100.00
68594;BME280;55563;52.416;13.548;2023-12-07T07:04:19;101577.34;;;1.24;100.00
68594;BME280;55563;52.416;13.548;2023-12-07T07:06:19;101582.00;;;1.28;100.00
68594;BME280;55563;52.416;13.548;2023-12-07T07:08:20;101584.41;;;1.30;100.00
68594;BME280;55563;52.416;13.548;2023-12-07T07:10:21;101582.63;;;1.30;100.00
68594;BME280;55563;52.416;13.548;2023-12-07T07:12:22;101576.63;;;1.30;100.00
68594;BME280;55563;52.416;13.548;2023-12-07T07:14:22;101576.03;;;1.28;100.00
68594;BME280;55563;52.416;13.548;2023-12-07T07:16:23;101586.38;;;1.28;100.00
68594;BME280;55563;52.416;13.548;2023-12-07T07:18:24;101587.66;;;1.32;100.00
68594;BME280;55563;52.416;13.548;2023-12-07T07:20:26;101585.22;;;1.30;100.00
68594;BME280;55563;52.416;13.548;2023-12-07T07:22:27;101591.41;;;1.29;100.00
68594;BME280;55563;52.416;13.548;2023-12-07T07:24:27;101592.31;;;1.37;100.00
68594;BME280;55563;52.416;13.548;2023-12-07T07:26:28;101587.13;;;1.37;100.00
68594;BME280;55563;52.416;13.548;2023-12-07T07:28:29;101594.09;;;1.36;100.00
68594;BME280;55563;52.416;13.548;2023-12-07T07:30:30;101600.06;;;1.37;100.00
68594;BME280;55563;52.416;13.548;2023-12-07T07:32:30;101592.31;;;1.37;100.00
68594;BME280;55563;52.416;13.548;2023-12-07T07:34:31;101595.25;;;1.34;100.00
68594;BME280;55563;52.416;13.548;2023-12-07T07:36:32;101601.03;;;1.36;100.00
68594;BME280;55563;52.416;13.548;2023-12-07T07:38:33;101602.22;;;1.33;100.00
68594;BME280;55563;52.416;13.548;2023-12-07T07:40:33;101602.00;;;1.35;100.00
68594;BME280;55563;52.416;13.548;2023-12-07T07:42:34;101597.84;;;1.34;100.00
68594;BME280;55563;52.416;13.548;2023-12-07T07:44:35;101596.22;;;1.33;100.00
68594;BME280;55563;52.416;13.548;2023-12-07T07:46:35;101591.03;;;1.33;100.00
68594;BME280;55563;52.416;13.548;2023-12-07T07:48:36;101590.75;;;1.27;100.00
68594;BME280;55563;52.416;13.548;2023-12-07T07:50:37;101594.88;;;1.37;100.00
68594;BME280;55563;52.416;13.548;2023-12-07T07:52:38;101598.75;;;1.41;100.00
68594;BME280;55563;52.416;13.548;2023-12-07T07:54:40;101598.75;;;1.41;100.00
68594;BME280;55563;52.416;13.548;2023-12-07T07:56:43;101597.75;;;1.42;100.00
68594;BME280;55563;52.416;13.548;2023-12-07T07:58:43;101599.53;;;1.41;100.00
68594;BME280;55563;52.416;13.548;2023-12-07T08:00:44;101606.34;;;1.42;100.00
68594;BME280;55563;52.416;13.548;2023-12-07T08:02:47;101596.97;;;1.41;100.00
68594;BME280;55563;52.416;13.548;2023-12-07T08:04:47;101602.94;;;1.42;100.00
68594;BME280;55563;52.416;13.548;2023-12-07T08:06:48;101603.75;;;1.42;100.00
68594;BME280;55563;52.416;13.548;2023-12-07T08:08:49;101601.97;;;1.43;100.00
68594;BME280;55563;52.416;13.548;2023-12-07T08:10:50;101604.38;;;1.44;100.00
68594;BME280;55563;52.416;13.548;2023-12-07T08:12:51;101607.31;;;1.41;100.00
68594;BME280;55563;52.416;13.548;2023-12-07T08:14:52;101597.75;;;1.42;100.00
68594;BME280;55563;52.416;13.548;2023-12-07T08:16:53;101606.19;;;1.44;100.00
68594;BME280;55563;52.416;13.548;2023-12-07T08:18:53;101602.78;;;1.43;100.00
68594;BME280;55563;52.416;13.548;2023-12-07T08:21:03;101599.03;;;1.46;100.00
68594;BME280;55563;52.416;13.548;2023-12-07T08:23:05;101596.59;;;1.44;100.00
68594;BME280;55563;52.416;13.548;2023-12-07T08:25:06;101597.41;;;1.45;100.00
68594;BME280;55563;52.416;13.548;2023-12-07T08:27:07;101598.03;;;1.47;100.00
68594;BME280;55563;52.416;13.548;2023-12-07T08:29:11;101600.47;;;1.48;100.00
68594;BME280;55563;52.416;13.548;2023-12-07T08:31:11;101614.41;;;1.47;100.00
68594;BME280;55563;52.416;13.548;2023-12-07T08:33:12;101611.59;;;1.49;100.00
68594;BME280;55563;52.416;13.548;2023-12-07T08:35:13;101618.59;;;1.48;100.00
68594;BME280;55563;52.416;13.548;2023-12-07T08:37:13;101617.78;;;1.48;100.00
68594;BME280;55563;52.416;13.548;2023-12-07T08:39:14;101616.00;;;1.48;100.00
68594;BME280;55563;52.416;13.548;2023-12-07T08:41:15;101629.56;;;1.50;100.00
68594;BME280;55563;52.416;13.548;2023-12-07T08:43:15;101632.63;;;1.54;100.00
68594;BME280;55563;52.416;13.548;2023-12-07T08:45:16;101631.66;;;1.55;100.00
68594;BME280;55563;52.416;13.548;2023-12-07T08:47:18;101622.44;;;1.52;100.00
68594;BME280;55563;52.416;13.548;2023-12-07T08:49:19;101627.63;;;1.52;100.00
68594;BME280;55563;52.416;13.548;2023-12-07T08:51:20;101626.75;;;1.60;100.00
68594;BME280;55563;52.416;13.548;2023-12-07T08:53:20;101625.09;;;1.67;100.00
68594;BME280;55563;52.416;13.548;2023-12-07T08:55:21;101631.69;;;1.69;100.00
68594;BME280;55563;52.416;13.548;2023-12-07T08:57:22;101640.91;;;1.72;100.00
68594;BME280;55563;52.416;13.548;2023-12-07T08:59:23;101641.72;;;1.72;100.00
68594;BME280;55563;52.416;13.548;2023-12-07T09:01:24;101636.34;;;1.74;100.00
68594;BME280;55563;52.416;13.548;2023-12-07T09:03:24;101638.13;;;1.73;100.00
68594;BME280;55563;52.416;13.548;2023-12-07T09:05:31;101637.78;;;1.77;100.00
68594;BME280;55563;52.416;13.548;2023-12-07T09:07:32;101638.59;;;1.77;100.00
68594;BME280;55563;52.416;13.548;2023-12-07T09:09:33;101633.59;;;1.75;100.00
68594;BME280;55563;52.416;13.548;2023-12-07T09:11:33;101643.78;;;1.77;100.00
68594;BME280;55563;52.416;13.548;2023-12-07T09:13:35;101644.41;;;1.79;100.00
68594;BME280;55563;52.416;13.548;2023-12-07T09:15:36;101638.59;;;1.77;100.00
68594;BME280;55563;52.416;13.548;2023-12-07T09:17:38;101632.06;;;1.81;100.00
68594;BME280;55563;52.416;13.548;2023-12-07T09:19:39;101632.69;;;1.83;100.00
68594;BME280;55563;52.416;13.548;2023-12-07T09:21:40;101637.72;;;1.85;100.00
68594;BME280;55563;52.416;13.548;2023-12-07T09:23:42;101636.38;;;1.89;100.00
68594;BME280;55563;52.416;13.548;2023-12-07T09:25:43;101637.19;;;1.89;100.00
68594;BME280;55563;52.416;13.548;2023-12-07T09:27:44;101641.22;;;1.92;100.00
68594;BME280;55563;52.416;13.548;2023-12-07T09:29:45;101637.63;;;1.93;100.00
68594;BME280;55563;52.416;13.548;2023-12-07T09:31:45;101635.84;;;1.93;100.00
68594;BME280;55563;52.416;13.548;2023-12-07T09:33:46;101642.81;;;1.93;100.00
68594;BME280;55563;52.416;13.548;2023-12-07T09:35:48;101651.06;;;1.96;100.00
68594;BME280;55563;52.416;13.548;2023-12-07T09:37:49;101645.22;;;1.94;100.00
68594;BME280;55563;52.416;13.548;2023-12-07T09:39:50;101645.22;;;1.94;100.00
68594;BME280;55563;52.416;13.548;2023-12-07T09:41:50;101640.84;;;1.95;100.00
68594;BME280;55563;52.416;13.548;2023-12-07T09:43:51;101647.66;;;1.96;100.00
68594;BME280;55563;52.416;13.548;2023-12-07T09:45:54;101654.63;;;1.95;100.00
68594;BME280;55563;52.416;13.548;2023-12-07T09:47:54;101649.06;;;1.98;100.00
68594;BME280;55563;52.416;13.548;2023-12-07T09:49:56;101650.69;;;1.99;100.00
68594;BME280;55563;52.416;13.548;2023-12-07T09:51:58;101648.47;;;1.96;100.00
68594;BME280;55563;52.416;13.548;2023-12-07T09:53:59;101649.88;;;1.99;100.00
68594;BME280;55563;52.416;13.548;2023-12-07T09:56:00;101657.66;;;1.99;100.00
68594;BME280;55563;52.416;13.548;2023-12-07T09:58:04;101658.63;;;1.98;100.00
68594;BME280;55563;52.416;13.548;2023-12-07T10:00:06;101652.84;;;1.96;100.00
68594;BME280;55563;52.416;13.548;2023-12-07T10:02:10;101654.09;;;2.00;100.00
68594;BME280;55563;52.416;13.548;2023-12-07T10:04:20;101661.88;;;2.00;100.00
68594;BME280;55563;52.416;13.548;2023-12-07T10:06:21;101664.09;;;2.03;100.00
68594;BME280;55563;52.416;13.548;2023-12-07T10:08:26;101654.69;;;2.02;100.00
68594;BME280;55563;52.416;13.548;2023-12-07T10:10:28;101659.88;;;2.02;100.00
68594;BME280;55563;52.416;13.548;2023-12-07T10:12:29;101660.09;;;2.00;100.00
68594;BME280;55563;52.416;13.548;2023-12-07T10:14:31;101659.88;;;2.02;100.00
68594;BME280;55563;52.416;13.548;2023-12-07T10:16:32;101653.72;;;2.03;100.00
68594;BME280;55563;52.416;13.548;2023-12-07T10:18:36;101650.97;;;2.04;100.00
68594;BME280;55563;52.416;13.548;2023-12-07T10:20:37;101645.94;;;2.03;100.00
68594;BME280;55563;52.416;13.548;2023-12-07T10:22:46;101652.91;;;2.02;100.00
68594;BME280;55563;52.416;13.548;2023-12-07T10:24:47;101651.13;;;2.03;100.00
68594;BME280;55563;52.416;13.548;2023-12-07T10:26:49;101650.00;;;2.05;100.00